sensor_id;sensor_type;location;lat;lon;timestamp;temperature;humidity
46732;DHT22;32477;51.474;5.696;2022-07-29T00:01:22;17.30;99.90
46732;DHT22;32477;51.474;5.696;2022-07-29T00:03:48;17.00;99.90
46732;DHT22;32477;51.474;5.696;2022-07-29T00:06:15;16.50;99.90
46732;DHT22;32477;51.474;5.696;2022-07-29T00:08:40;16.00;99.90
46732;DHT22;32477;51.474;5.696;2022-07-29T00:11:06;15.70;99.90
46732;DHT22;32477;51.474;5.696;2022-07-29T00:13:32;15.60;99.90
46732;DHT22;32477;51.474;5.696;2022-07-29T00:15:58;15.50;99.90
46732;DHT22;32477;51.474;5.696;2022-07-29T00:18:27;15.40;99.90
46732;DHT22;32477;51.474;5.696;2022-07-29T00:20:53;15.40;99.90
46732;DHT22;32477;51.474;5.696;2022-07-29T00:23:21;15.30;99.90
46732;DHT22;32477;51.474;5.696;2022-07-29T00:25:47;15.30;99.90
46732;DHT22;32477;51.474;5.696;2022-07-29T00:28:13;15.40;99.90
46732;DHT22;32477;51.474;5.696;2022-07-29T00:30:38;15.30;99.90
46732;DHT22;32477;51.474;5.696;2022-07-29T00:33:05;15.30;99.90
46732;DHT22;32477;51.474;5.696;2022-07-29T00:35:30;15.30;99.90
46732;DHT22;32477;51.474;5.696;2022-07-29T00:38:13;15.20;99.90
46732;DHT22;32477;51.474;5.696;2022-07-29T00:40:40;15.10;99.90
46732;DHT22;32477;51.474;5.696;2022-07-29T00:43:06;15.10;99.90
46732;DHT22;32477;51.474;5.696;2022-07-29T00:45:32;15.10;99.90
46732;DHT22;32477;51.474;5.696;2022-07-29T00:47:58;15.20;99.90
46732;DHT22;32477;51.474;5.696;2022-07-29T00:50:24;15.20;99.90
46732;DHT22;32477;51.474;5.696;2022-07-29T00:52:50;15.20;99.90
46732;DHT22;32477;51.474;5.696;2022-07-29T00:55:17;15.50;99.90
46732;DHT22;32477;51.474;5.696;2022-07-29T00:57:44;15.40;99.90
46732;DHT22;32477;51.474;5.696;2022-07-29T01:00:14;15.30;99.90
46732;DHT22;32477;51.474;5.696;2022-07-29T01:02:40;15.40;99.90
46732;DHT22;32477;51.474;5.696;2022-07-29T01:05:06;15.30;99.90
46732;DHT22;32477;51.474;5.696;2022-07-29T01:07:34;15.30;99.90
46732;DHT22;32477;51.474;5.696;2022-07-29T01:10:03;15.20;99.90
46732;DHT22;32477;51.474;5.696;2022-07-29T01:12:30;15.20;99.90
46732;DHT22;32477;51.474;5.696;2022-07-29T01:15:00;15.20;99.90
46732;DHT22;32477;51.474;5.696;2022-07-29T01:31:31;15.00;99.90
46732;DHT22;32477;51.474;5.696;2022-07-29T01:34:04;15.00;99.90
46732;DHT22;32477;51.474;5.696;2022-07-29T01:36:32;14.90;99.90
46732;DHT22;32477;51.474;5.696;2022-07-29T01:39:08;14.80;99.90
46732;DHT22;32477;51.474;5.696;2022-07-29T01:41:38;14.80;99.90
46732;DHT22;32477;51.474;5.696;2022-07-29T01:44:20;14.80;99.90
46732;DHT22;32477;51.474;5.696;2022-07-29T01:46:55;14.70;99.90
46732;DHT22;32477;51.474;5.696;2022-07-29T01:49:25;14.70;99.90
46732;DHT22;32477;51.474;5.696;2022-07-29T01:51:53;14.80;99.90
46732;DHT22;32477;51.474;5.696;2022-07-29T01:56:56;14.90;99.90
46732;DHT22;32477;51.474;5.696;2022-07-29T01:59:23;14.80;99.90
46732;DHT22;32477;51.474;5.696;2022-07-29T02:01:53;14.80;99.90
46732;DHT22;32477;51.474;5.696;2022-07-29T02:04:19;14.70;99.90
46732;DHT22;32477;51.474;5.696;2022-07-29T02:06:49;14.70;99.90
46732;DHT22;32477;51.474;5.696;2022-07-29T02:09:15;14.70;99.90
46732;DHT22;32477;51.474;5.696;2022-07-29T02:11:47;14.70;99.90
46732;DHT22;32477;51.474;5.696;2022-07-29T02:14:14;14.70;99.90
46732;DHT22;32477;51.474;5.696;2022-07-29T02:16:41;14.60;99.90
46732;DHT22;32477;51.474;5.696;2022-07-29T02:19:08;14.60;99.90
46732;DHT22;32477;51.474;5.696;2022-07-29T02:21:35;14.60;99.90
46732;DHT22;32477;51.474;5.696;2022-07-29T02:24:01;14.60;99.90
46732;DHT22;32477;51.474;5.696;2022-07-29T02:26:30;14.60;99.90
46732;DHT22;32477;51.474;5.696;2022-07-29T02:28:59;14.60;99.90
46732;DHT22;32477;51.474;5.696;2022-07-29T02:31:28;14.60;99.90
46732;DHT22;32477;51.474;5.696;2022-07-29T02:33:56;14.60;99.90
46732;DHT22;32477;51.474;5.696;2022-07-29T02:36:23;14.70;99.90
46732;DHT22;32477;51.474;5.696;2022-07-29T02:38:50;14.60;99.90
46732;DHT22;32477;51.474;5.696;2022-07-29T02:41:24;14.60;99.90
46732;DHT22;32477;51.474;5.696;2022-07-29T02:43:56;14.60;99.90
46732;DHT22;32477;51.474;5.696;2022-07-29T02:46:34;14.60;99.90
46732;DHT22;32477;51.474;5.696;2022-07-29T02:49:09;14.50;99.90
46732;DHT22;32477;51.474;5.696;2022-07-29T02:51:46;14.50;99.90
46732;DHT22;32477;51.474;5.696;2022-07-29T02:57:09;14.40;99.90
46732;DHT22;32477;51.474;5.696;2022-07-29T02:59:37;14.30;99.90
46732;DHT22;32477;51.474;5.696;2022-07-29T03:02:07;14.30;99.90
46732;DHT22;32477;51.474;5.696;2022-07-29T03:04:36;14.40;99.90
46732;DHT22;32477;51.474;5.696;2022-07-29T03:07:03;14.30;99.90
46732;DHT22;32477;51.474;5.696;2022-07-29T03:09:30;14.40;99.90
46732;DHT22;32477;51.474;5.696;2022-07-29T03:11:57;14.40;99.90
46732;DHT22;32477;51.474;5.696;2022-07-29T03:14:23;14.40;99.90
46732;DHT22;32477;51.474;5.696;2022-07-29T03:16:50;14.30;99.90
46732;DHT22;32477;51.474;5.696;2022-07-29T03:19:19;14.30;99.90
46732;DHT22;32477;51.474;5.696;2022-07-29T03:21:45;14.20;99.90
46732;DHT22;32477;51.474;5.696;2022-07-29T03:24:33;14.30;99.90
46732;DHT22;32477;51.474;5.696;2022-07-29T03:26:59;14.40;99.90
46732;DHT22;32477;51.474;5.696;2022-07-29T03:29:26;14.40;99.90
46732;DHT22;32477;51.474;5.696;2022-07-29T03:31:52;14.50;99.90
46732;DHT22;32477;51.474;5.696;2022-07-29T03:34:18;14.50;99.90
46732;DHT22;32477;51.474;5.696;2022-07-29T03:36:44;14.50;99.90
46732;DHT22;32477;51.474;5.696;2022-07-29T03:39:17;14.50;99.90
46732;DHT22;32477;51.474;5.696;2022-07-29T03:41:45;14.50;99.90
46732;DHT22;32477;51.474;5.696;2022-07-29T03:44:14;14.50;99.90
46732;DHT22;32477;51.474;5.696;2022-07-29T03:46:43;14.50;99.90
46732;DHT22;32477;51.474;5.696;2022-07-29T03:49:11;14.50;99.90
46732;DHT22;32477;51.474;5.696;2022-07-29T03:51:37;14.40;99.90
46732;DHT22;32477;51.474;5.696;2022-07-29T03:54:04;14.40;99.90
46732;DHT22;32477;51.474;5.696;2022-07-29T03:56:32;14.40;99.90
46732;DHT22;32477;51.474;5.696;2022-07-29T03:59:01;14.30;99.90
46732;DHT22;32477;51.474;5.696;2022-07-29T04:01:28;14.30;99.90
46732;DHT22;32477;51.474;5.696;2022-07-29T04:03:55;14.30;99.90
46732;DHT22;32477;51.474;5.696;2022-07-29T04:06:20;14.20;99.90
46732;DHT22;32477;51.474;5.696;2022-07-29T04:08:46;14.20;99.90
46732;DHT22;32477;51.474;5.696;2022-07-29T04:11:12;14.20;99.90
46732;DHT22;32477;51.474;5.696;2022-07-29T04:13:38;14.20;99.90
46732;DHT22;32477;51.474;5.696;2022-07-29T04:16:04;14.10;99.90
46732;DHT22;32477;51.474;5.696;2022-07-29T04:18:30;14.10;99.90
46732;DHT22;32477;51.474;5.696;2022-07-29T04:20:55;14.10;99.90
46732;DHT22;32477;51.474;5.696;2022-07-29T04:23:24;14.10;99.90
46732;DHT22;32477;51.474;5.696;2022-07-29T04:25:50;14.10;99.90
46732;DHT22;32477;51.474;5.696;2022-07-29T04:28:16;14.10;99.90
46732;DHT22;32477;51.474;5.696;2022-07-29T04:30:45;14.10;99.90
46732;DHT22;32477;51.474;5.696;2022-07-29T04:33:10;14.10;99.90
46732;DHT22;32477;51.474;5.696;2022-07-29T04:35:37;14.00;99.90
46732;DHT22;32477;51.474;5.696;2022-07-29T04:38:06;14.10;99.90
46732;DHT22;32477;51.474;5.696;2022-07-29T04:40:35;14.10;99.90
46732;DHT22;32477;51.474;5.696;2022-07-29T04:43:01;14.10;99.90
46732;DHT22;32477;51.474;5.696;2022-07-29T04:45:30;14.10;99.90
46732;DHT22;32477;51.474;5.696;2022-07-29T04:47:56;14.10;99.90
46732;DHT22;32477;51.474;5.696;2022-07-29T04:50:22;14.20;99.90
46732;DHT22;32477;51.474;5.696;2022-07-29T04:52:47;14.30;99.90
46732;DHT22;32477;51.474;5.696;2022-07-29T04:55:13;14.30;99.90
46732;DHT22;32477;51.474;5.696;2022-07-29T04:57:39;14.20;99.90
46732;DHT22;32477;51.474;5.696;2022-07-29T05:00:06;14.20;99.90
46732;DHT22;32477;51.474;5.696;2022-07-29T05:02:32;14.20;99.90
46732;DHT22;32477;51.474;5.696;2022-07-29T05:04:59;14.40;99.90
46732;DHT22;32477;51.474;5.696;2022-07-29T05:07:25;14.40;99.90
46732;DHT22;32477;51.474;5.696;2022-07-29T05:09:50;14.40;99.90
46732;DHT22;32477;51.474;5.696;2022-07-29T05:12:16;14.40;99.90
46732;DHT22;32477;51.474;5.696;2022-07-29T05:14:42;14.40;99.90
46732;DHT22;32477;51.474;5.696;2022-07-29T05:17:08;14.30;99.90
46732;DHT22;32477;51.474;5.696;2022-07-29T05:19:36;14.20;99.90
46732;DHT22;32477;51.474;5.696;2022-07-29T05:22:02;14.30;99.90
46732;DHT22;32477;51.474;5.696;2022-07-29T05:24:28;14.20;99.90
46732;DHT22;32477;51.474;5.696;2022-07-29T05:26:53;14.30;99.90
46732;DHT22;32477;51.474;5.696;2022-07-29T05:29:19;14.30;99.90
46732;DHT22;32477;51.474;5.696;2022-07-29T05:31:45;14.30;99.90
46732;DHT22;32477;51.474;5.696;2022-07-29T05:34:10;14.30;99.90
46732;DHT22;32477;51.474;5.696;2022-07-29T05:36:37;14.20;99.90
46732;DHT22;32477;51.474;5.696;2022-07-29T05:39:02;14.30;99.90
46732;DHT22;32477;51.474;5.696;2022-07-29T05:41:31;14.30;99.90
46732;DHT22;32477;51.474;5.696;2022-07-29T05:43:58;14.30;99.90
46732;DHT22;32477;51.474;5.696;2022-07-29T05:46:26;14.40;99.90
46732;DHT22;32477;51.474;5.696;2022-07-29T05:52:15;14.30;99.90
46732;DHT22;32477;51.474;5.696;2022-07-29T05:54:42;14.30;99.90
46732;DHT22;32477;51.474;5.696;2022-07-29T05:57:09;14.30;99.90
46732;DHT22;32477;51.474;5.696;2022-07-29T05:59:40;14.40;99.90
46732;DHT22;32477;51.474;5.696;2022-07-29T06:02:06;14.40;99.90
46732;DHT22;32477;51.474;5.696;2022-07-29T06:04:32;14.40;99.90
46732;DHT22;32477;51.474;5.696;2022-07-29T06:06:58;14.40;99.90
46732;DHT22;32477;51.474;5.696;2022-07-29T06:09:26;14.50;99.90
46732;DHT22;32477;51.474;5.696;2022-07-29T06:11:55;14.40;99.90
46732;DHT22;32477;51.474;5.696;2022-07-29T06:14:25;14.40;99.90
46732;DHT22;32477;51.474;5.696;2022-07-29T06:16:59;14.40;99.90
46732;DHT22;32477;51.474;5.696;2022-07-29T06:19:25;14.40;99.90
46732;DHT22;32477;51.474;5.696;2022-07-29T06:21:54;14.40;99.90
46732;DHT22;32477;51.474;5.696;2022-07-29T06:24:23;14.40;99.90
46732;DHT22;32477;51.474;5.696;2022-07-29T06:26:50;14.50;99.90
46732;DHT22;32477;51.474;5.696;2022-07-29T06:29:21;14.40;99.90
46732;DHT22;32477;51.474;5.696;2022-07-29T06:31:48;14.50;99.90
46732;DHT22;32477;51.474;5.696;2022-07-29T06:34:17;14.50;99.90
46732;DHT22;32477;51.474;5.696;2022-07-29T06:36:42;14.50;99.90
46732;DHT22;32477;51.474;5.696;2022-07-29T06:39:17;14.50;99.90
46732;DHT22;32477;51.474;5.696;2022-07-29T06:41:47;14.60;99.90
46732;DHT22;32477;51.474;5.696;2022-07-29T06:44:17;14.60;99.90
46732;DHT22;32477;51.474;5.696;2022-07-29T06:46:45;14.70;99.90
46732;DHT22;32477;51.474;5.696;2022-07-29T06:49:14;14.80;99.90
46732;DHT22;32477;51.474;5.696;2022-07-29T06:51:43;14.80;99.90
46732;DHT22;32477;51.474;5.696;2022-07-29T06:54:09;14.90;99.90
46732;DHT22;32477;51.474;5.696;2022-07-29T06:56:35;14.80;99.90
46732;DHT22;32477;51.474;5.696;2022-07-29T06:59:07;14.90;99.90
46732;DHT22;32477;51.474;5.696;2022-07-29T07:01:42;14.90;99.90
46732;DHT22;32477;51.474;5.696;2022-07-29T07:04:09;15.00;99.90
46732;DHT22;32477;51.474;5.696;2022-07-29T07:06:41;15.10;99.90
46732;DHT22;32477;51.474;5.696;2022-07-29T07:09:34;15.10;99.90
46732;DHT22;32477;51.474;5.696;2022-07-29T07:12:05;15.30;99.90
46732;DHT22;32477;51.474;5.696;2022-07-29T07:14:34;15.30;99.90
46732;DHT22;32477;51.474;5.696;2022-07-29T07:19:51;15.60;99.90
46732;DHT22;32477;51.474;5.696;2022-07-29T07:22:19;15.70;99.90
46732;DHT22;32477;51.474;5.696;2022-07-29T07:24:45;16.00;99.90
46732;DHT22;32477;51.474;5.696;2022-07-29T07:27:11;16.40;99.90
46732;DHT22;32477;51.474;5.696;2022-07-29T07:29:36;16.90;99.90
46732;DHT22;32477;51.474;5.696;2022-07-29T07:32:07;17.50;99.90
46732;DHT22;32477;51.474;5.696;2022-07-29T07:34:38;17.60;99.90
46732;DHT22;32477;51.474;5.696;2022-07-29T07:37:04;17.60;99.90
46732;DHT22;32477;51.474;5.696;2022-07-29T07:39:31;17.70;99.90
46732;DHT22;32477;51.474;5.696;2022-07-29T07:41:56;17.80;99.90
46732;DHT22;32477;51.474;5.696;2022-07-29T07:44:22;18.00;99.90
46732;DHT22;32477;51.474;5.696;2022-07-29T07:46:49;17.90;99.90
46732;DHT22;32477;51.474;5.696;2022-07-29T07:49:15;17.90;99.90
46732;DHT22;32477;51.474;5.696;2022-07-29T07:51:45;18.00;99.90
46732;DHT22;32477;51.474;5.696;2022-07-29T07:54:11;17.90;99.90
46732;DHT22;32477;51.474;5.696;2022-07-29T07:56:38;18.00;99.90
46732;DHT22;32477;51.474;5.696;2022-07-29T07:59:03;18.50;99.90
46732;DHT22;32477;51.474;5.696;2022-07-29T08:01:30;19.60;99.90
46732;DHT22;32477;51.474;5.696;2022-07-29T08:03:57;20.60;99.90
46732;DHT22;32477;51.474;5.696;2022-07-29T08:06:24;20.80;99.90
46732;DHT22;32477;51.474;5.696;2022-07-29T08:08:50;21.30;99.90
46732;DHT22;32477;51.474;5.696;2022-07-29T08:11:16;21.60;99.90
46732;DHT22;32477;51.474;5.696;2022-07-29T08:13:42;22.30;99.90
46732;DHT22;32477;51.474;5.696;2022-07-29T08:16:09;22.80;99.90
46732;DHT22;32477;51.474;5.696;2022-07-29T08:18:39;23.40;99.90
46732;DHT22;32477;51.474;5.696;2022-07-29T08:21:06;23.70;99.90
46732;DHT22;32477;51.474;5.696;2022-07-29T08:23:32;23.90;99.90
46732;DHT22;32477;51.474;5.696;2022-07-29T08:26:06;24.20;99.90
46732;DHT22;32477;51.474;5.696;2022-07-29T08:28:38;23.90;99.90
46732;DHT22;32477;51.474;5.696;2022-07-29T08:31:04;24.00;99.90
46732;DHT22;32477;51.474;5.696;2022-07-29T08:33:32;23.90;99.90
46732;DHT22;32477;51.474;5.696;2022-07-29T08:35:59;23.90;99.90
46732;DHT22;32477;51.474;5.696;2022-07-29T08:38:24;24.10;99.90
46732;DHT22;32477;51.474;5.696;2022-07-29T08:40:52;24.20;99.90
46732;DHT22;32477;51.474;5.696;2022-07-29T08:43:18;24.70;99.90
46732;DHT22;32477;51.474;5.696;2022-07-29T08:45:50;25.00;99.90
46732;DHT22;32477;51.474;5.696;2022-07-29T08:48:18;25.20;99.50
46732;DHT22;32477;51.474;5.696;2022-07-29T08:50:44;25.40;99.10
46732;DHT22;32477;51.474;5.696;2022-07-29T08:53:12;25.40;98.70
46732;DHT22;32477;51.474;5.696;2022-07-29T08:55:49;25.60;98.20
46732;DHT22;32477;51.474;5.696;2022-07-29T08:58:21;25.80;98.50
46732;DHT22;32477;51.474;5.696;2022-07-29T09:00:52;26.50;98.60
46732;DHT22;32477;51.474;5.696;2022-07-29T09:03:25;26.50;98.10
46732;DHT22;32477;51.474;5.696;2022-07-29T09:05:51;26.80;96.90
46732;DHT22;32477;51.474;5.696;2022-07-29T09:08:18;27.10;97.00
46732;DHT22;32477;51.474;5.696;2022-07-29T09:10:46;27.10;95.80
46732;DHT22;32477;51.474;5.696;2022-07-29T09:13:12;27.10;95.10
46732;DHT22;32477;51.474;5.696;2022-07-29T09:15:38;27.90;95.10
46732;DHT22;32477;51.474;5.696;2022-07-29T09:18:44;28.00;95.30
46732;DHT22;32477;51.474;5.696;2022-07-29T09:21:05;28.70;94.50
46732;DHT22;32477;51.474;5.696;2022-07-29T09:24:12;28.90;93.80
46732;DHT22;32477;51.474;5.696;2022-07-29T09:26:42;29.10;93.20
46732;DHT22;32477;51.474;5.696;2022-07-29T09:29:23;29.40;93.00
46732;DHT22;32477;51.474;5.696;2022-07-29T09:31:55;29.80;92.20
46732;DHT22;32477;51.474;5.696;2022-07-29T09:34:41;30.10;91.10
46732;DHT22;32477;51.474;5.696;2022-07-29T09:37:08;29.40;91.90
46732;DHT22;32477;51.474;5.696;2022-07-29T09:39:51;29.70;91.80
46732;DHT22;32477;51.474;5.696;2022-07-29T09:42:28;30.00;91.90
46732;DHT22;32477;51.474;5.696;2022-07-29T09:44:54;30.10;90.30
46732;DHT22;32477;51.474;5.696;2022-07-29T09:47:40;30.40;91.30
46732;DHT22;32477;51.474;5.696;2022-07-29T09:50:12;30.50;90.50
46732;DHT22;32477;51.474;5.696;2022-07-29T09:52:50;31.00;88.40
46732;DHT22;32477;51.474;5.696;2022-07-29T09:55:17;31.60;86.50
46732;DHT22;32477;51.474;5.696;2022-07-29T09:57:44;31.40;87.70
46732;DHT22;32477;51.474;5.696;2022-07-29T10:00:16;30.50;87.80
46732;DHT22;32477;51.474;5.696;2022-07-29T10:02:44;30.20;87.70
46732;DHT22;32477;51.474;5.696;2022-07-29T10:05:21;29.90;89.00
46732;DHT22;32477;51.474;5.696;2022-07-29T10:07:55;29.70;87.50
46732;DHT22;32477;51.474;5.696;2022-07-29T10:10:42;29.40;89.40
46732;DHT22;32477;51.474;5.696;2022-07-29T10:13:23;29.80;86.80
46732;DHT22;32477;51.474;5.696;2022-07-29T10:16:18;29.80;86.60
46732;DHT22;32477;51.474;5.696;2022-07-29T10:19:01;29.30;86.30
46732;DHT22;32477;51.474;5.696;2022-07-29T10:21:36;29.80;85.40
46732;DHT22;32477;51.474;5.696;2022-07-29T10:24:09;30.00;86.80
46732;DHT22;32477;51.474;5.696;2022-07-29T10:26:50;30.40;85.20
46732;DHT22;32477;51.474;5.696;2022-07-29T10:29:16;30.10;83.30
46732;DHT22;32477;51.474;5.696;2022-07-29T10:31:51;29.70;84.10
46732;DHT22;32477;51.474;5.696;2022-07-29T10:43:23;29.60;83.50
46732;DHT22;32477;51.474;5.696;2022-07-29T10:45:55;29.10;85.70
46732;DHT22;32477;51.474;5.696;2022-07-29T10:48:22;29.70;84.30
46732;DHT22;32477;51.474;5.696;2022-07-29T10:50:59;30.10;85.00
46732;DHT22;32477;51.474;5.696;2022-07-29T10:53:46;31.00;83.10
46732;DHT22;32477;51.474;5.696;2022-07-29T10:56:31;31.70;81.20
46732;DHT22;32477;51.474;5.696;2022-07-29T11:01:53;31.70;78.70
46732;DHT22;32477;51.474;5.696;2022-07-29T11:07:12;32.20;78.70
46732;DHT22;32477;51.474;5.696;2022-07-29T11:09:39;31.90;79.00
46732;DHT22;32477;51.474;5.696;2022-07-29T11:15:10;31.60;78.80
46732;DHT22;32477;51.474;5.696;2022-07-29T11:26:15;31.00;78.30
46732;DHT22;32477;51.474;5.696;2022-07-29T11:29:02;32.00;76.20
46732;DHT22;32477;51.474;5.696;2022-07-29T11:34:17;32.10;77.00
46732;DHT22;32477;51.474;5.696;2022-07-29T11:39:36;31.60;76.10
46732;DHT22;32477;51.474;5.696;2022-07-29T11:42:42;31.30;76.40
46732;DHT22;32477;51.474;5.696;2022-07-29T11:49:15;31.20;76.60
46732;DHT22;32477;51.474;5.696;2022-07-29T12:08:49;31.60;74.10
46732;DHT22;32477;51.474;5.696;2022-07-29T12:11:38;31.90;74.30
46732;DHT22;32477;51.474;5.696;2022-07-29T12:14:04;32.90;74.90
46732;DHT22;32477;51.474;5.696;2022-07-29T12:16:58;33.10;73.90
46732;DHT22;32477;51.474;5.696;2022-07-29T12:34:01;33.70;72.70
46732;DHT22;32477;51.474;5.696;2022-07-29T12:36:47;34.30;70.80
46732;DHT22;32477;51.474;5.696;2022-07-29T12:39:42;33.90;71.50
46732;DHT22;32477;51.474;5.696;2022-07-29T12:53:41;32.90;70.30
46732;DHT22;32477;51.474;5.696;2022-07-29T12:56:26;33.20;70.70
46732;DHT22;32477;51.474;5.696;2022-07-29T12:58:52;33.10;70.70
46732;DHT22;32477;51.474;5.696;2022-07-29T13:01:18;32.40;70.30
46732;DHT22;32477;51.474;5.696;2022-07-29T13:06:43;31.80;73.80
46732;DHT22;32477;51.474;5.696;2022-07-29T13:13:21;32.70;69.70
46732;DHT22;32477;51.474;5.696;2022-07-29T13:16:05;33.50;70.90
46732;DHT22;32477;51.474;5.696;2022-07-29T13:18:34;34.10;69.30
46732;DHT22;32477;51.474;5.696;2022-07-29T13:21:12;33.40;69.20
46732;DHT22;32477;51.474;5.696;2022-07-29T13:23:38;32.90;69.60
46732;DHT22;32477;51.474;5.696;2022-07-29T13:26:12;33.00;70.10
46732;DHT22;32477;51.474;5.696;2022-07-29T13:28:38;33.10;68.40
46732;DHT22;32477;51.474;5.696;2022-07-29T13:31:04;32.80;68.50
46732;DHT22;32477;51.474;5.696;2022-07-29T13:33:30;32.50;67.80
46732;DHT22;32477;51.474;5.696;2022-07-29T13:35:56;33.00;68.90
46732;DHT22;32477;51.474;5.696;2022-07-29T13:38:22;33.10;67.90
46732;DHT22;32477;51.474;5.696;2022-07-29T13:40:47;32.90;67.80
46732;DHT22;32477;51.474;5.696;2022-07-29T13:43:13;33.60;67.20
46732;DHT22;32477;51.474;5.696;2022-07-29T13:45:39;33.60;66.20
46732;DHT22;32477;51.474;5.696;2022-07-29T13:48:05;32.50;67.20
46732;DHT22;32477;51.474;5.696;2022-07-29T13:50:31;32.00;67.80
46732;DHT22;32477;51.474;5.696;2022-07-29T13:52:57;30.80;70.80
46732;DHT22;32477;51.474;5.696;2022-07-29T13:55:23;29.90;72.30
46732;DHT22;32477;51.474;5.696;2022-07-29T13:57:48;28.60;73.70
46732;DHT22;32477;51.474;5.696;2022-07-29T14:00:14;27.80;74.00
46732;DHT22;32477;51.474;5.696;2022-07-29T14:02:41;27.50;75.20
46732;DHT22;32477;51.474;5.696;2022-07-29T14:05:09;29.00;74.00
46732;DHT22;32477;51.474;5.696;2022-07-29T14:07:38;30.60;71.20
46732;DHT22;32477;51.474;5.696;2022-07-29T14:10:05;31.90;68.20
46732;DHT22;32477;51.474;5.696;2022-07-29T14:12:31;32.00;69.10
46732;DHT22;32477;51.474;5.696;2022-07-29T14:14:58;30.70;69.60
46732;DHT22;32477;51.474;5.696;2022-07-29T14:17:24;30.60;70.60
46732;DHT22;32477;51.474;5.696;2022-07-29T14:19:49;31.40;70.00
46732;DHT22;32477;51.474;5.696;2022-07-29T14:22:15;31.10;69.80
46732;DHT22;32477;51.474;5.696;2022-07-29T14:24:43;30.90;69.40
46732;DHT22;32477;51.474;5.696;2022-07-29T14:27:09;30.40;69.60
46732;DHT22;32477;51.474;5.696;2022-07-29T14:29:35;29.80;69.60
46732;DHT22;32477;51.474;5.696;2022-07-29T14:32:02;29.90;71.70
46732;DHT22;32477;51.474;5.696;2022-07-29T14:34:35;29.60;70.80
46732;DHT22;32477;51.474;5.696;2022-07-29T14:37:01;29.80;70.70
46732;DHT22;32477;51.474;5.696;2022-07-29T14:39:28;30.00;70.60
46732;DHT22;32477;51.474;5.696;2022-07-29T14:41:54;29.80;69.90
46732;DHT22;32477;51.474;5.696;2022-07-29T14:44:20;29.90;71.20
46732;DHT22;32477;51.474;5.696;2022-07-29T14:46:45;29.20;71.70
46732;DHT22;32477;51.474;5.696;2022-07-29T14:49:11;28.60;72.00
46732;DHT22;32477;51.474;5.696;2022-07-29T14:51:37;28.60;73.30
46732;DHT22;32477;51.474;5.696;2022-07-29T14:54:02;28.30;72.00
46732;DHT22;32477;51.474;5.696;2022-07-29T14:56:30;28.10;72.20
46732;DHT22;32477;51.474;5.696;2022-07-29T14:58:56;28.00;74.80
46732;DHT22;32477;51.474;5.696;2022-07-29T15:01:22;27.80;73.60
46732;DHT22;32477;51.474;5.696;2022-07-29T15:03:48;27.60;74.20
46732;DHT22;32477;51.474;5.696;2022-07-29T15:06:14;27.40;73.50
46732;DHT22;32477;51.474;5.696;2022-07-29T15:08:39;27.10;73.90
46732;DHT22;32477;51.474;5.696;2022-07-29T15:11:05;26.90;75.50
46732;DHT22;32477;51.474;5.696;2022-07-29T15:13:31;27.00;74.10
46732;DHT22;32477;51.474;5.696;2022-07-29T15:15:58;27.10;74.40
46732;DHT22;32477;51.474;5.696;2022-07-29T15:18:23;27.30;74.60
46732;DHT22;32477;51.474;5.696;2022-07-29T15:20:49;27.30;74.40
46732;DHT22;32477;51.474;5.696;2022-07-29T15:23:14;27.20;74.30
46732;DHT22;32477;51.474;5.696;2022-07-29T15:25:40;27.10;75.30
46732;DHT22;32477;51.474;5.696;2022-07-29T15:28:06;27.10;74.60
46732;DHT22;32477;51.474;5.696;2022-07-29T15:30:34;27.00;75.40
46732;DHT22;32477;51.474;5.696;2022-07-29T15:33:01;27.10;75.40
46732;DHT22;32477;51.474;5.696;2022-07-29T15:35:27;26.60;74.30
46732;DHT22;32477;51.474;5.696;2022-07-29T15:37:52;26.30;75.10
46732;DHT22;32477;51.474;5.696;2022-07-29T15:40:18;26.10;75.20
46732;DHT22;32477;51.474;5.696;2022-07-29T15:42:43;25.90;76.10
46732;DHT22;32477;51.474;5.696;2022-07-29T15:45:09;25.70;77.40
46732;DHT22;32477;51.474;5.696;2022-07-29T15:47:35;25.60;76.00
46732;DHT22;32477;51.474;5.696;2022-07-29T15:50:01;25.60;76.00
46732;DHT22;32477;51.474;5.696;2022-07-29T15:52:27;25.60;75.50
46732;DHT22;32477;51.474;5.696;2022-07-29T15:54:54;25.80;75.90
46732;DHT22;32477;51.474;5.696;2022-07-29T15:57:20;26.10;77.10
46732;DHT22;32477;51.474;5.696;2022-07-29T15:59:46;26.50;75.20
46732;DHT22;32477;51.474;5.696;2022-07-29T16:02:11;26.80;75.20
46732;DHT22;32477;51.474;5.696;2022-07-29T16:04:37;27.10;73.80
46732;DHT22;32477;51.474;5.696;2022-07-29T16:07:03;27.20;73.00
46732;DHT22;32477;51.474;5.696;2022-07-29T16:09:28;27.30;73.50
46732;DHT22;32477;51.474;5.696;2022-07-29T16:11:54;27.10;74.20
46732;DHT22;32477;51.474;5.696;2022-07-29T16:14:21;26.80;73.30
46732;DHT22;32477;51.474;5.696;2022-07-29T16:16:47;26.60;75.00
46732;DHT22;32477;51.474;5.696;2022-07-29T16:19:13;26.30;75.60
46732;DHT22;32477;51.474;5.696;2022-07-29T16:21:39;26.40;75.60
46732;DHT22;32477;51.474;5.696;2022-07-29T16:24:05;26.20;75.20
46732;DHT22;32477;51.474;5.696;2022-07-29T16:26:32;26.10;75.80
46732;DHT22;32477;51.474;5.696;2022-07-29T16:28:58;25.80;76.20
46732;DHT22;32477;51.474;5.696;2022-07-29T16:31:24;25.80;76.00
46732;DHT22;32477;51.474;5.696;2022-07-29T16:33:51;25.90;76.30
46732;DHT22;32477;51.474;5.696;2022-07-29T16:36:17;26.00;75.60
46732;DHT22;32477;51.474;5.696;2022-07-29T16:38:43;25.80;75.50
46732;DHT22;32477;51.474;5.696;2022-07-29T16:41:09;25.80;76.00
46732;DHT22;32477;51.474;5.696;2022-07-29T16:43:35;25.80;76.20
46732;DHT22;32477;51.474;5.696;2022-07-29T16:46:06;25.80;76.30
46732;DHT22;32477;51.474;5.696;2022-07-29T16:48:31;25.80;76.00
46732;DHT22;32477;51.474;5.696;2022-07-29T16:50:57;25.60;74.70
46732;DHT22;32477;51.474;5.696;2022-07-29T16:53:22;25.70;75.80
46732;DHT22;32477;51.474;5.696;2022-07-29T16:55:48;25.70;75.10
46732;DHT22;32477;51.474;5.696;2022-07-29T16:58:14;25.60;74.80
46732;DHT22;32477;51.474;5.696;2022-07-29T17:00:39;25.50;74.20
46732;DHT22;32477;51.474;5.696;2022-07-29T17:03:05;25.40;73.90
46732;DHT22;32477;51.474;5.696;2022-07-29T17:05:33;25.40;74.20
46732;DHT22;32477;51.474;5.696;2022-07-29T17:07:59;25.50;74.80
46732;DHT22;32477;51.474;5.696;2022-07-29T17:10:24;25.40;73.70
46732;DHT22;32477;51.474;5.696;2022-07-29T17:12:50;25.20;74.10
46732;DHT22;32477;51.474;5.696;2022-07-29T17:15:16;25.20;74.90
46732;DHT22;32477;51.474;5.696;2022-07-29T17:17:43;25.10;75.50
46732;DHT22;32477;51.474;5.696;2022-07-29T17:20:09;25.00;74.80
46732;DHT22;32477;51.474;5.696;2022-07-29T17:22:36;25.00;75.90
46732;DHT22;32477;51.474;5.696;2022-07-29T17:25:03;24.90;75.80
46732;DHT22;32477;51.474;5.696;2022-07-29T17:27:29;24.80;75.10
46732;DHT22;32477;51.474;5.696;2022-07-29T17:29:55;24.80;76.70
46732;DHT22;32477;51.474;5.696;2022-07-29T17:32:20;24.80;76.10